sensor_id;sensor_type;location;lat;lon;timestamp;noise_LAeq;noise_LA_min;noise_LA_max;noise_LA01;noise_LA95
76100;Laerm;64828;49.956;8.636;2023-02-24T00:00:09;38.63;36.86;41.31;;
76100;Laerm;64828;49.956;8.636;2023-02-24T00:00:46;38.48;36.43;45.75;;
76100;Laerm;64828;49.956;8.636;2023-02-24T00:01:12;38.45;36.60;40.53;;
76100;Laerm;64828;49.956;8.636;2023-02-24T00:01:37;38.99;37.03;41.58;;
76100;Laerm;64828;49.956;8.636;2023-02-24T00:01:58;38.99;36.73;42.21;;
76100;Laerm;64828;49.956;8.636;2023-02-24T00:02:19;39.08;37.41;41.07;;
76100;Laerm;64828;49.956;8.636;2023-02-24T00:02:35;39.07;37.33;40.93;;
76100;Laerm;64828;49.956;8.636;2023-02-24T00:02:50;39.05;37.36;40.79;;
76100;Laerm;64828;49.956;8.636;2023-02-24T00:03:07;39.17;37.07;41.04;;
76100;Laerm;64828;49.956;8.636;2023-02-24T00:03:25;38.96;37.41;40.74;;
76100;Laerm;64828;49.956;8.636;2023-02-24T00:03:40;39.60;37.68;41.62;;
76100;Laerm;64828;49.956;8.636;2023-02-24T00:03:59;39.56;37.65;41.52;;
76100;Laerm;64828;49.956;8.636;2023-02-24T00:04:15;39.90;37.88;42.14;;
76100;Laerm;64828;49.956;8.636;2023-02-24T00:04:35;39.83;36.87;42.43;;
76100;Laerm;64828;49.956;8.636;2023-02-24T00:04:52;39.36;37.59;41.10;;
76100;Laerm;64828;49.956;8.636;2023-02-24T00:05:08;39.80;38.18;41.51;;
76100;Laerm;64828;49.956;8.636;2023-02-24T00:05:24;39.58;37.60;41.29;;
76100;Laerm;64828;49.956;8.636;2023-02-24T00:05:40;38.97;37.21;41.05;;
76100;Laerm;64828;49.956;8.636;2023-02-24T00:05:58;39.00;37.28;40.60;;
76100;Laerm;64828;49.956;8.636;2023-02-24T00:06:14;39.10;36.81;41.56;;
76100;Laerm;64828;49.956;8.636;2023-02-24T00:06:29;38.78;37.31;40.84;;
76100;Laerm;64828;49.956;8.636;2023-02-24T00:06:51;38.41;36.87;40.39;;
76100;Laerm;64828;49.956;8.636;2023-02-24T00:07:09;38.06;36.60;39.77;;
76100;Laerm;64828;49.956;8.636;2023-02-24T00:07:25;37.93;36.53;39.80;;
76100;Laerm;64828;49.956;8.636;2023-02-24T00:07:44;38.01;36.45;39.68;;
76100;Laerm;64828;49.956;8.636;2023-02-24T00:08:00;38.12;36.68;39.67;;
76100;Laerm;64828;49.956;8.636;2023-02-24T00:08:15;37.96;36.24;39.47;;
76100;Laerm;64828;49.956;8.636;2023-02-24T00:08:31;38.54;36.89;40.36;;
76100;Laerm;64828;49.956;8.636;2023-02-24T00:08:46;38.41;36.59;40.46;;
76100;Laerm;64828;49.956;8.636;2023-02-24T00:09:16;38.62;36.57;41.46;;
76100;Laerm;64828;49.956;8.636;2023-02-24T00:09:32;37.97;36.39;39.55;;
76100;Laerm;64828;49.956;8.636;2023-02-24T00:09:48;37.69;35.99;39.41;;
76100;Laerm;64828;49.956;8.636;2023-02-24T00:10:04;37.81;36.23;40.06;;
76100;Laerm;64828;49.956;8.636;2023-02-24T00:10:20;37.97;36.58;39.85;;
76100;Laerm;64828;49.956;8.636;2023-02-24T00:10:35;37.72;36.10;42.74;;
76100;Laerm;64828;49.956;8.636;2023-02-24T00:10:51;38.21;36.61;43.36;;
76100;Laerm;64828;49.956;8.636;2023-02-24T00:11:11;38.13;36.47;39.88;;
76100;Laerm;64828;49.956;8.636;2023-02-24T00:11:30;37.90;36.04;39.33;;
76100;Laerm;64828;49.956;8.636;2023-02-24T00:12:05;38.02;36.25;39.85;;
76100;Laerm;64828;49.956;8.636;2023-02-24T00:12:23;38.37;36.46;40.44;;
76100;Laerm;64828;49.956;8.636;2023-02-24T00:12:42;38.16;36.63;39.87;;
76100;Laerm;64828;49.956;8.636;2023-02-24T00:13:01;38.12;36.66;39.41;;
76100;Laerm;64828;49.956;8.636;2023-02-24T00:13:17;38.07;36.48;39.64;;
76100;Laerm;64828;49.956;8.636;2023-02-24T00:13:36;38.52;36.55;40.87;;
76100;Laerm;64828;49.956;8.636;2023-02-24T00:13:52;38.72;36.67;45.41;;
76100;Laerm;64828;49.956;8.636;2023-02-24T00:14:12;38.64;36.74;40.98;;
76100;Laerm;64828;49.956;8.636;2023-02-24T00:14:34;38.60;36.96;40.26;;
76100;Laerm;64828;49.956;8.636;2023-02-24T00:14:50;38.36;36.69;39.77;;
76100;Laerm;64828;49.956;8.636;2023-02-24T00:15:06;38.36;37.02;40.04;;
76100;Laerm;64828;49.956;8.636;2023-02-24T00:15:21;38.24;36.83;39.58;;
76100;Laerm;64828;49.956;8.636;2023-02-24T00:15:37;38.05;36.64;39.52;;
76100;Laerm;64828;49.956;8.636;2023-02-24T00:16:04;38.10;36.46;39.60;;
76100;Laerm;64828;49.956;8.636;2023-02-24T00:16:20;38.07;36.17;40.18;;
76100;Laerm;64828;49.956;8.636;2023-02-24T00:16:38;37.87;36.15;39.75;;
76100;Laerm;64828;49.956;8.636;2023-02-24T00:16:54;37.68;36.01;38.98;;
76100;Laerm;64828;49.956;8.636;2023-02-24T00:17:11;38.21;36.07;42.17;;
76100;Laerm;64828;49.956;8.636;2023-02-24T00:17:28;38.31;36.19;40.25;;
76100;Laerm;64828;49.956;8.636;2023-02-24T00:17:45;38.18;36.32;39.69;;
76100;Laerm;64828;49.956;8.636;2023-02-24T00:18:01;38.16;36.55;39.82;;
76100;Laerm;64828;49.956;8.636;2023-02-24T00:18:21;38.50;36.86;40.41;;
76100;Laerm;64828;49.956;8.636;2023-02-24T00:18:36;38.29;36.20;40.00;;
76100;Laerm;64828;49.956;8.636;2023-02-24T00:18:52;38.47;36.70;39.97;;
76100;Laerm;64828;49.956;8.636;2023-02-24T00:19:10;38.67;37.14;40.32;;
76100;Laerm;64828;49.956;8.636;2023-02-24T00:19:30;38.69;37.17;40.59;;
76100;Laerm;64828;49.956;8.636;2023-02-24T00:19:49;38.43;36.71;40.07;;
76100;Laerm;64828;49.956;8.636;2023-02-24T00:20:05;38.79;36.92;40.37;;
76100;Laerm;64828;49.956;8.636;2023-02-24T00:20:26;38.25;36.35;40.23;;
76100;Laerm;64828;49.956;8.636;2023-02-24T00:20:42;37.87;36.39;39.18;;
76100;Laerm;64828;49.956;8.636;2023-02-24T00:21:06;37.99;36.14;39.65;;
76100;Laerm;64828;49.956;8.636;2023-02-24T00:21:23;37.86;35.94;39.81;;
76100;Laerm;64828;49.956;8.636;2023-02-24T00:21:39;38.06;36.59;39.56;;
76100;Laerm;64828;49.956;8.636;2023-02-24T00:21:55;37.96;36.37;39.38;;
76100;Laerm;64828;49.956;8.636;2023-02-24T00:22:10;38.04;36.32;39.44;;
76100;Laerm;64828;49.956;8.636;2023-02-24T00:22:27;37.85;36.36;39.31;;
76100;Laerm;64828;49.956;8.636;2023-02-24T00:22:42;37.66;36.13;39.15;;
76100;Laerm;64828;49.956;8.636;2023-02-24T00:22:59;37.88;36.59;39.54;;
76100;Laerm;64828;49.956;8.636;2023-02-24T00:23:14;38.01;36.35;39.95;;
76100;Laerm;64828;49.956;8.636;2023-02-24T00:23:34;37.59;36.28;38.99;;
76100;Laerm;64828;49.956;8.636;2023-02-24T00:23:52;37.64;35.95;39.39;;
76100;Laerm;64828;49.956;8.636;2023-02-24T00:24:09;38.12;36.56;46.13;;
76100;Laerm;64828;49.956;8.636;2023-02-24T00:24:26;37.93;36.00;39.10;;
76100;Laerm;64828;49.956;8.636;2023-02-24T00:24:41;38.28;36.41;39.89;;
76100;Laerm;64828;49.956;8.636;2023-02-24T00:24:57;38.12;36.57;39.42;;
76100;Laerm;64828;49.956;8.636;2023-02-24T00:25:16;37.93;36.44;39.90;;
76100;Laerm;64828;49.956;8.636;2023-02-24T00:25:32;37.82;36.27;39.11;;
76100;Laerm;64828;49.956;8.636;2023-02-24T00:25:57;37.66;35.81;39.17;;
76100;Laerm;64828;49.956;8.636;2023-02-24T00:26:15;37.70;35.75;38.93;;
76100;Laerm;64828;49.956;8.636;2023-02-24T00:26:31;37.78;36.53;39.30;;
76100;Laerm;64828;49.956;8.636;2023-02-24T00:26:56;37.75;36.11;42.24;;
76100;Laerm;64828;49.956;8.636;2023-02-24T00:27:13;37.80;36.13;39.30;;
76100;Laerm;64828;49.956;8.636;2023-02-24T00:27:29;37.99;36.26;39.86;;
76100;Laerm;64828;49.956;8.636;2023-02-24T00:27:44;38.45;36.66;41.81;;
76100;Laerm;64828;49.956;8.636;2023-02-24T00:28:00;38.05;36.34;40.21;;
76100;Laerm;64828;49.956;8.636;2023-02-24T00:28:16;38.06;36.44;39.76;;
76100;Laerm;64828;49.956;8.636;2023-02-24T00:28:33;37.93;35.96;40.17;;
76100;Laerm;64828;49.956;8.636;2023-02-24T00:28:49;37.64;35.84;39.80;;
76100;Laerm;64828;49.956;8.636;2023-02-24T00:29:09;37.39;35.63;39.27;;
76100;Laerm;64828;49.956;8.636;2023-02-24T00:29:27;37.58;36.00;40.86;;
76100;Laerm;64828;49.956;8.636;2023-02-24T00:29:44;37.58;35.56;40.69;;
76100;Laerm;64828;49.956;8.636;2023-02-24T00:30:01;37.75;35.44;40.99;;
76100;Laerm;64828;49.956;8.636;2023-02-24T00:30:19;37.77;35.96;39.74;;
76100;Laerm;64828;49.956;8.636;2023-02-24T00:30:35;38.03;36.45;40.82;;
76100;Laerm;64828;49.956;8.636;2023-02-24T00:30:51;37.64;36.31;39.84;;
76100;Laerm;64828;49.956;8.636;2023-02-24T00:31:15;37.79;36.20;39.72;;
76100;Laerm;64828;49.956;8.636;2023-02-24T00:31:32;37.65;36.23;40.28;;
76100;Laerm;64828;49.956;8.636;2023-02-24T00:31:52;37.52;35.87;45.72;;
76100;Laerm;64828;49.956;8.636;2023-02-24T00:32:14;37.58;35.78;42.94;;
76100;Laerm;64828;49.956;8.636;2023-02-24T00:32:30;37.21;35.78;40.32;;
76100;Laerm;64828;49.956;8.636;2023-02-24T00:32:47;37.30;35.63;38.70;;
76100;Laerm;64828;49.956;8.636;2023-02-24T00:33:02;37.58;35.90;39.78;;
76100;Laerm;64828;49.956;8.636;2023-02-24T00:33:18;37.51;35.42;40.95;;
76100;Laerm;64828;49.956;8.636;2023-02-24T00:33:37;37.07;35.29;38.60;;
76100;Laerm;64828;49.956;8.636;2023-02-24T00:33:54;37.31;35.97;39.65;;
76100;Laerm;64828;49.956;8.636;2023-02-24T00:34:11;37.46;35.99;40.43;;
76100;Laerm;64828;49.956;8.636;2023-02-24T00:34:29;37.82;36.02;40.52;;
76100;Laerm;64828;49.956;8.636;2023-02-24T00:34:47;37.38;35.67;39.71;;
76100;Laerm;64828;49.956;8.636;2023-02-24T00:35:03;36.98;35.31;39.28;;
76100;Laerm;64828;49.956;8.636;2023-02-24T00:35:19;37.20;35.49;39.01;;
76100;Laerm;64828;49.956;8.636;2023-02-24T00:35:35;37.30;35.67;40.11;;
76100;Laerm;64828;49.956;8.636;2023-02-24T00:35:51;36.98;35.72;38.60;;
76100;Laerm;64828;49.956;8.636;2023-02-24T00:36:19;37.24;35.77;41.91;;
76100;Laerm;64828;49.956;8.636;2023-02-24T00:36:38;37.16;35.76;38.62;;
76100;Laerm;64828;49.956;8.636;2023-02-24T00:36:54;36.86;35.48;38.06;;
76100;Laerm;64828;49.956;8.636;2023-02-24T00:37:09;37.18;35.34;39.35;;
76100;Laerm;64828;49.956;8.636;2023-02-24T00:37:26;36.98;35.34;39.37;;
76100;Laerm;64828;49.956;8.636;2023-02-24T00:37:41;36.85;35.59;39.55;;
76100;Laerm;64828;49.956;8.636;2023-02-24T00:37:57;36.93;35.20;38.07;;
76100;Laerm;64828;49.956;8.636;2023-02-24T00:38:13;37.11;35.87;38.59;;
76100;Laerm;64828;49.956;8.636;2023-02-24T00:38:29;37.04;35.58;38.24;;
76100;Laerm;64828;49.956;8.636;2023-02-24T00:38:53;37.02;35.10;38.47;;
76100;Laerm;64828;49.956;8.636;2023-02-24T00:39:12;36.94;35.64;38.01;;
76100;Laerm;64828;49.956;8.636;2023-02-24T00:39:28;37.02;35.32;39.20;;
76100;Laerm;64828;49.956;8.636;2023-02-24T00:39:50;37.01;35.60;38.33;;
76100;Laerm;64828;49.956;8.636;2023-02-24T00:40:07;37.04;35.69;38.26;;
76100;Laerm;64828;49.956;8.636;2023-02-24T00:40:25;37.12;35.65;38.32;;
76100;Laerm;64828;49.956;8.636;2023-02-24T00:40:41;36.93;35.78;38.05;;
76100;Laerm;64828;49.956;8.636;2023-02-24T00:40:59;36.85;35.48;38.02;;
76100;Laerm;64828;49.956;8.636;2023-02-24T00:41:18;36.89;35.69;37.92;;
76100;Laerm;64828;49.956;8.636;2023-02-24T00:41:40;36.97;35.57;38.33;;
76100;Laerm;64828;49.956;8.636;2023-02-24T00:41:57;36.98;35.74;38.26;;
76100;Laerm;64828;49.956;8.636;2023-02-24T00:42:18;37.05;35.21;38.52;;
76100;Laerm;64828;49.956;8.636;2023-02-24T00:42:34;37.05;35.50;38.32;;
76100;Laerm;64828;49.956;8.636;2023-02-24T00:42:49;36.84;35.61;38.14;;
76100;Laerm;64828;49.956;8.636;2023-02-24T00:43:06;37.03;35.67;38.48;;
76100;Laerm;64828;49.956;8.636;2023-02-24T00:43:23;36.79;35.57;38.00;;
76100;Laerm;64828;49.956;8.636;2023-02-24T00:43:40;36.81;35.48;37.82;;
76100;Laerm;64828;49.956;8.636;2023-02-24T00:44:04;36.93;35.37;38.57;;
76100;Laerm;64828;49.956;8.636;2023-02-24T00:44:21;36.76;35.29;37.81;;
76100;Laerm;64828;49.956;8.636;2023-02-24T00:44:43;36.91;35.17;38.45;;
76100;Laerm;64828;49.956;8.636;2023-02-24T00:44:59;36.80;35.20;38.19;;
76100;Laerm;64828;49.956;8.636;2023-02-24T00:45:15;36.66;35.01;41.48;;
76100;Laerm;64828;49.956;8.636;2023-02-24T00:45:34;36.64;35.10;37.83;;
76100;Laerm;64828;49.956;8.636;2023-02-24T00:45:51;36.76;35.39;38.31;;
76100;Laerm;64828;49.956;8.636;2023-02-24T00:46:07;36.92;35.74;41.64;;
76100;Laerm;64828;49.956;8.636;2023-02-24T00:46:26;36.85;35.08;38.10;;
76100;Laerm;64828;49.956;8.636;2023-02-24T00:46:45;37.01;35.56;38.67;;
76100;Laerm;64828;49.956;8.636;2023-02-24T00:47:03;36.99;35.48;38.68;;
76100;Laerm;64828;49.956;8.636;2023-02-24T00:47:19;37.49;35.73;39.25;;
76100;Laerm;64828;49.956;8.636;2023-02-24T00:47:37;37.70;36.13;39.59;;
76100;Laerm;64828;49.956;8.636;2023-02-24T00:47:56;37.01;35.63;38.40;;
76100;Laerm;64828;49.956;8.636;2023-02-24T00:48:12;36.93;35.77;38.50;;
76100;Laerm;64828;49.956;8.636;2023-02-24T00:48:29;36.97;35.62;38.29;;
76100;Laerm;64828;49.956;8.636;2023-02-24T00:48:48;37.03;35.61;38.15;;
76100;Laerm;64828;49.956;8.636;2023-02-24T00:49:09;36.74;35.09;37.84;;
76100;Laerm;64828;49.956;8.636;2023-02-24T00:49:27;37.02;35.47;38.50;;
76100;Laerm;64828;49.956;8.636;2023-02-24T00:49:43;36.95;35.41;38.28;;
76100;Laerm;64828;49.956;8.636;2023-02-24T00:49:59;36.95;35.61;38.10;;
76100;Laerm;64828;49.956;8.636;2023-02-24T00:50:15;36.86;34.88;38.06;;
76100;Laerm;64828;49.956;8.636;2023-02-24T00:50:31;36.84;35.63;38.35;;
76100;Laerm;64828;49.956;8.636;2023-02-24T00:50:47;36.92;35.53;38.22;;
76100;Laerm;64828;49.956;8.636;2023-02-24T00:51:03;36.95;35.72;38.25;;
76100;Laerm;64828;49.956;8.636;2023-02-24T00:51:24;36.83;35.43;38.08;;
76100;Laerm;64828;49.956;8.636;2023-02-24T00:51:47;36.73;35.00;38.25;;
76100;Laerm;64828;49.956;8.636;2023-02-24T00:52:03;36.95;35.33;46.64;;
76100;Laerm;64828;49.956;8.636;2023-02-24T00:52:22;36.76;35.27;38.30;;
76100;Laerm;64828;49.956;8.636;2023-02-24T00:52:42;36.71;35.14;37.97;;
76100;Laerm;64828;49.956;8.636;2023-02-24T00:52:57;36.65;35.10;37.91;;
76100;Laerm;64828;49.956;8.636;2023-02-24T00:53:13;36.55;35.34;37.66;;
76100;Laerm;64828;49.956;8.636;2023-02-24T00:53:28;36.67;35.50;37.89;;
76100;Laerm;64828;49.956;8.636;2023-02-24T00:53:44;36.76;34.97;37.99;;
76100;Laerm;64828;49.956;8.636;2023-02-24T00:54:01;36.78;35.25;37.84;;
76100;Laerm;64828;49.956;8.636;2023-02-24T00:54:17;36.77;35.52;38.06;;
76100;Laerm;64828;49.956;8.636;2023-02-24T00:54:36;36.81;35.43;37.84;;
76100;Laerm;64828;49.956;8.636;2023-02-24T00:54:51;36.90;35.54;41.40;;
76100;Laerm;64828;49.956;8.636;2023-02-24T00:55:08;36.89;35.37;38.07;;
76100;Laerm;64828;49.956;8.636;2023-02-24T00:55:29;36.95;35.49;38.42;;
76100;Laerm;64828;49.956;8.636;2023-02-24T00:55:59;37.01;35.57;38.48;;
76100;Laerm;64828;49.956;8.636;2023-02-24T00:56:16;36.72;35.30;37.79;;
76100;Laerm;64828;49.956;8.636;2023-02-24T00:56:32;36.74;35.30;37.98;;
76100;Laerm;64828;49.956;8.636;2023-02-24T00:56:48;36.90;35.51;38.12;;
76100;Laerm;64828;49.956;8.636;2023-02-24T00:57:04;36.71;35.50;38.16;;
76100;Laerm;64828;49.956;8.636;2023-02-24T00:57:22;36.77;35.25;38.00;;
76100;Laerm;64828;49.956;8.636;2023-02-24T00:57:38;37.04;35.65;38.34;;
76100;Laerm;64828;49.956;8.636;2023-02-24T00:57:55;37.57;36.14;39.16;;
76100;Laerm;64828;49.956;8.636;2023-02-24T00:58:11;37.89;36.65;39.30;;
76100;Laerm;64828;49.956;8.636;2023-02-24T00:58:27;37.49;35.91;38.78;;
76100;Laerm;64828;49.956;8.636;2023-02-24T00:58:44;37.07;35.50;38.53;;
76100;Laerm;64828;49.956;8.636;2023-02-24T00:59:01;37.10;35.62;38.49;;
76100;Laerm;64828;49.956;8.636;2023-02-24T00:59:17;37.24;35.79;38.77;;
76100;Laerm;64828;49.956;8.636;2023-02-24T00:59:35;37.17;35.99;38.80;;
76100;Laerm;64828;49.956;8.636;2023-02-24T00:59:50;37.14;35.42;38.52;;
76100;Laerm;64828;49.956;8.636;2023-02-24T01:00:09;47.31;36.08;58.52;;
76100;Laerm;64828;49.956;8.636;2023-02-24T01:00:30;50.70;41.77;58.03;;
76100;Laerm;64828;49.956;8.636;2023-02-24T01:00:50;40.64;36.56;46.99;;
76100;Laerm;64828;49.956;8.636;2023-02-24T01:01:19;38.10;35.25;42.08;;
76100;Laerm;64828;49.956;8.636;2023-02-24T01:01:37;37.40;35.74;39.60;;
76100;Laerm;64828;49.956;8.636;2023-02-24T01:01:52;37.13;35.80;38.47;;
76100;Laerm;64828;49.956;8.636;2023-02-24T01:02:10;36.76;35.53;37.85;;
76100;Laerm;64828;49.956;8.636;2023-02-24T01:02:26;36.76;35.22;38.18;;
76100;Laerm;64828;49.956;8.636;2023-02-24T01:02:42;36.73;35.30;37.96;;
76100;Laerm;64828;49.956;8.636;2023-02-24T01:03:02;36.89;35.60;38.16;;
76100;Laerm;64828;49.956;8.636;2023-02-24T01:03:19;37.18;35.72;38.61;;
76100;Laerm;64828;49.956;8.636;2023-02-24T01:03:34;37.22;35.73;38.54;;
76100;Laerm;64828;49.956;8.636;2023-02-24T01:03:52;37.13;35.71;38.99;;
76100;Laerm;64828;49.956;8.636;2023-02-24T01:04:12;37.08;35.34;38.36;;
76100;Laerm;64828;49.956;8.636;2023-02-24T01:04:29;37.19;35.56;38.67;;
76100;Laerm;64828;49.956;8.636;2023-02-24T01:04:44;37.18;35.89;38.55;;
76100;Laerm;64828;49.956;8.636;2023-02-24T01:05:01;37.06;35.66;38.30;;
76100;Laerm;64828;49.956;8.636;2023-02-24T01:05:19;36.88;35.55;37.85;;
76100;Laerm;64828;49.956;8.636;2023-02-24T01:05:35;37.49;35.71;39.13;;
76100;Laerm;64828;49.956;8.636;2023-02-24T01:05:51;37.74;36.29;39.22;;
76100;Laerm;64828;49.956;8.636;2023-02-24T01:06:07;37.16;35.62;38.44;;
76100;Laerm;64828;49.956;8.636;2023-02-24T01:06:27;37.23;35.65;38.60;;
76100;Laerm;64828;49.956;8.636;2023-02-24T01:06:47;37.53;35.71;38.98;;
76100;Laerm;64828;49.956;8.636;2023-02-24T01:07:03;37.91;36.20;40.29;;
76100;Laerm;64828;49.956;8.636;2023-02-24T01:07:24;37.67;36.06;39.52;;
76100;Laerm;64828;49.956;8.636;2023-02-24T01:07:43;37.64;36.28;39.17;;
76100;Laerm;64828;49.956;8.636;2023-02-24T01:07:59;37.92;36.63;39.41;;
76100;Laerm;64828;49.956;8.636;2023-02-24T01:08:15;37.64;36.19;39.03;;
76100;Laerm;64828;49.956;8.636;2023-02-24T01:08:35;38.06;35.79;42.01;;
76100;Laerm;64828;49.956;8.636;2023-02-24T01:08:56;37.80;36.05;39.68;;
76100;Laerm;64828;49.956;8.636;2023-02-24T01:09:15;37.78;36.37;39.23;;
76100;Laerm;64828;49.956;8.636;2023-02-24T01:09:31;37.63;35.99;38.98;;
76100;Laerm;64828;49.956;8.636;2023-02-24T01:09:49;37.43;36.15;38.80;;
76100;Laerm;64828;49.956;8.636;2023-02-24T01:10:05;37.43;35.75;39.29;;
76100;Laerm;64828;49.956;8.636;2023-02-24T01:10:23;37.70;35.93;39.10;;
76100;Laerm;64828;49.956;8.636;2023-02-24T01:10:41;37.54;35.97;39.03;;
76100;Laerm;64828;49.956;8.636;2023-02-24T01:11:21;37.11;35.41;38.32;;
76100;Laerm;64828;49.956;8.636;2023-02-24T01:11:56;37.08;35.58;38.32;;
76100;Laerm;64828;49.956;8.636;2023-02-24T01:12:30;37.30;35.82;39.00;;
76100;Laerm;64828;49.956;8.636;2023-02-24T01:13:15;37.35;35.52;39.08;;
76100;Laerm;64828;49.956;8.636;2023-02-24T01:13:30;36.89;35.60;38.23;;
76100;Laerm;64828;49.956;8.636;2023-02-24T01:13:47;36.91;35.19;38.28;;
76100;Laerm;64828;49.956;8.636;2023-02-24T01:14:09;37.05;35.64;38.55;;
76100;Laerm;64828;49.956;8.636;2023-02-24T01:14:30;37.24;35.19;38.72;;
76100;Laerm;64828;49.956;8.636;2023-02-24T01:14:49;37.28;35.80;44.58;;
76100;Laerm;64828;49.956;8.636;2023-02-24T01:15:07;37.23;35.76;38.43;;
76100;Laerm;64828;49.956;8.636;2023-02-24T01:15:23;37.31;36.03;38.77;;
76100;Laerm;64828;49.956;8.636;2023-02-24T01:15:39;37.43;36.17;38.98;;
76100;Laerm;64828;49.956;8.636;2023-02-24T01:16:00;37.37;35.86;38.97;;
76100;Laerm;64828;49.956;8.636;2023-02-24T01:16:16;37.45;36.13;38.98;;
76100;Laerm;64828;49.956;8.636;2023-02-24T01:16:36;37.95;35.90;40.19;;
76100;Laerm;64828;49.956;8.636;2023-02-24T01:16:52;37.72;36.38;39.06;;
76100;Laerm;64828;49.956;8.636;2023-02-24T01:17:08;37.44;36.14;38.68;;
76100;Laerm;64828;49.956;8.636;2023-02-24T01:17:24;37.34;36.05;38.42;;
76100;Laerm;64828;49.956;8.636;2023-02-24T01:17:39;37.51;36.00;38.74;;
76100;Laerm;64828;49.956;8.636;2023-02-24T01:17:55;37.51;35.85;39.07;;
76100;Laerm;64828;49.956;8.636;2023-02-24T01:18:10;37.71;36.01;39.21;;
76100;Laerm;64828;49.956;8.636;2023-02-24T01:18:26;37.71;36.11;39.38;;
76100;Laerm;64828;49.956;8.636;2023-02-24T01:18:46;38.22;36.68;39.48;;
76100;Laerm;64828;49.956;8.636;2023-02-24T01:19:04;37.73;35.78;39.19;;
76100;Laerm;64828;49.956;8.636;2023-02-24T01:19:24;38.06;35.77;40.07;;
76100;Laerm;64828;49.956;8.636;2023-02-24T01:19:45;37.77;36.32;41.24;;
76100;Laerm;64828;49.956;8.636;2023-02-24T01:20:06;37.36;36.06;38.83;;
76100;Laerm;64828;49.956;8.636;2023-02-24T01:20:32;37.15;35.71;38.84;;
76100;Laerm;64828;49.956;8.636;2023-02-24T01:20:48;37.35;35.96;39.03;;
76100;Laerm;64828;49.956;8.636;2023-02-24T01:21:04;37.25;35.90;38.97;;
76100;Laerm;64828;49.956;8.636;2023-02-24T01:21:20;37.51;36.18;38.84;;
76100;Laerm;64828;49.956;8.636;2023-02-24T01:21:36;37.48;36.15;38.87;;
76100;Laerm;64828;49.956;8.636;2023-02-24T01:21:51;37.52;36.09;39.09;;
76100;Laerm;64828;49.956;8.636;2023-02-24T01:22:14;37.87;36.03;39.96;;
76100;Laerm;64828;49.956;8.636;2023-02-24T01:22:29;38.08;36.34;40.28;;
76100;Laerm;64828;49.956;8.636;2023-02-24T01:22:49;38.18;36.53;40.00;;
76100;Laerm;64828;49.956;8.636;2023-02-24T01:23:05;37.99;36.22;39.64;;
76100;Laerm;64828;49.956;8.636;2023-02-24T01:23:20;38.08;36.53;39.65;;
76100;Laerm;64828;49.956;8.636;2023-02-24T01:23:38;37.90;36.42;39.60;;
76100;Laerm;64828;49.956;8.636;2023-02-24T01:23:54;38.45;36.77;40.74;;
76100;Laerm;64828;49.956;8.636;2023-02-24T01:24:10;38.81;37.09;41.19;;
76100;Laerm;64828;49.956;8.636;2023-02-24T01:24:29;38.56;36.59;40.97;;
76100;Laerm;64828;49.956;8.636;2023-02-24T01:24:46;38.42;36.61;41.44;;
76100;Laerm;64828;49.956;8.636;2023-02-24T01:25:02;37.92;36.37;39.48;;
76100;Laerm;64828;49.956;8.636;2023-02-24T01:25:18;37.96;36.22;39.77;;
76100;Laerm;64828;49.956;8.636;2023-02-24T01:25:34;37.97;36.20;39.47;;
76100;Laerm;64828;49.956;8.636;2023-02-24T01:25:51;38.25;36.27;40.84;;
76100;Laerm;64828;49.956;8.636;2023-02-24T01:26:09;38.02;36.01;39.59;;
76100;Laerm;64828;49.956;8.636;2023-02-24T01:26:25;38.19;36.37;40.15;;
76100;Laerm;64828;49.956;8.636;2023-02-24T01:26:42;38.15;35.86;39.91;;
76100;Laerm;64828;49.956;8.636;2023-02-24T01:26:58;37.98;36.46;39.29;;
76100;Laerm;64828;49.956;8.636;2023-02-24T01:27:16;37.57;36.10;39.23;;
76100;Laerm;64828;49.956;8.636;2023-02-24T01:27:33;37.49;36.20;39.33;;
76100;Laerm;64828;49.956;8.636;2023-02-24T01:27:51;37.35;35.62;38.85;;
76100;Laerm;64828;49.956;8.636;2023-02-24T01:28:08;37.21;35.03;38.53;;
76100;Laerm;64828;49.956;8.636;2023-02-24T01:28:26;37.11;35.70;38.36;;
76100;Laerm;64828;49.956;8.636;2023-02-24T01:28:43;37.13;35.44;38.58;;
76100;Laerm;64828;49.956;8.636;2023-02-24T01:29:02;37.35;35.73;38.76;;
76100;Laerm;64828;49.956;8.636;2023-02-24T01:29:24;37.77;35.94;39.46;;
76100;Laerm;64828;49.956;8.636;2023-02-24T01:29:40;37.77;36.22;39.70;;
76100;Laerm;64828;49.956;8.636;2023-02-24T01:29:56;37.74;36.11;39.16;;
76100;Laerm;64828;49.956;8.636;2023-02-24T01:30:12;37.72;36.15;38.92;;
76100;Laerm;64828;49.956;8.636;2023-02-24T01:30:29;37.99;36.48;39.79;;
76100;Laerm;64828;49.956;8.636;2023-02-24T01:30:45;38.29;36.81;40.45;;
76100;Laerm;64828;49.956;8.636;2023-02-24T01:31:03;38.11;36.52;39.90;;
76100;Laerm;64828;49.956;8.636;2023-02-24T01:31:19;37.88;36.24;39.62;;
76100;Laerm;64828;49.956;8.636;2023-02-24T01:31:39;37.97;36.46;39.61;;
76100;Laerm;64828;49.956;8.636;2023-02-24T01:31:57;38.08;36.24;39.54;;
76100;Laerm;64828;49.956;8.636;2023-02-24T01:32:17;38.33;36.70;39.76;;
76100;Laerm;64828;49.956;8.636;2023-02-24T01:32:34;38.26;36.65;39.86;;
76100;Laerm;64828;49.956;8.636;2023-02-24T01:32:49;38.44;36.33;40.60;;
76100;Laerm;64828;49.956;8.636;2023-02-24T01:33:05;38.13;36.69;39.61;;
76100;Laerm;64828;49.956;8.636;2023-02-24T01:33:22;37.70;36.18;39.09;;
76100;Laerm;64828;49.956;8.636;2023-02-24T01:33:38;37.71;36.15;39.17;;
76100;Laerm;64828;49.956;8.636;2023-02-24T01:33:54;37.44;35.59;38.91;;
76100;Laerm;64828;49.956;8.636;2023-02-24T01:34:11;37.51;36.28;39.26;;
76100;Laerm;64828;49.956;8.636;2023-02-24T01:34:27;37.49;36.07;39.22;;
76100;Laerm;64828;49.956;8.636;2023-02-24T01:34:43;37.77;36.35;39.29;;
76100;Laerm;64828;49.956;8.636;2023-02-24T01:34:59;37.94;35.65;39.54;;
76100;Laerm;64828;49.956;8.636;2023-02-24T01:35:15;38.06;36.45;39.38;;
76100;Laerm;64828;49.956;8.636;2023-02-24T01:35:30;37.77;36.26;39.11;;
76100;Laerm;64828;49.956;8.636;2023-02-24T01:35:49;38.08;36.64;39.78;;
76100;Laerm;64828;49.956;8.636;2023-02-24T01:36:12;37.88;36.26;39.53;;
76100;Laerm;64828;49.956;8.636;2023-02-24T01:36:28;38.54;36.62;45.69;;
76100;Laerm;64828;49.956;8.636;2023-02-24T01:36:45;39.00;36.86;41.79;;
76100;Laerm;64828;49.956;8.636;2023-02-24T01:37:01;38.79;37.30;41.47;;
76100;Laerm;64828;49.956;8.636;2023-02-24T01:37:16;38.36;36.83;39.92;;
76100;Laerm;64828;49.956;8.636;2023-02-24T01:37:33;38.44;36.48;40.14;;
76100;Laerm;64828;49.956;8.636;2023-02-24T01:37:49;37.89;36.48;39.30;;
76100;Laerm;64828;49.956;8.636;2023-02-24T01:38:05;37.70;36.21;39.35;;
76100;Laerm;64828;49.956;8.636;2023-02-24T01:38:21;37.89;36.08;39.30;;
76100;Laerm;64828;49.956;8.636;2023-02-24T01:38:40;37.94;36.20;39.66;;
76100;Laerm;64828;49.956;8.636;2023-02-24T01:39:00;37.88;36.49;39.92;;
76100;Laerm;64828;49.956;8.636;2023-02-24T01:39:16;39.10;36.31;50.28;;
76100;Laerm;64828;49.956;8.636;2023-02-24T01:39:31;38.10;36.49;40.20;;
76100;Laerm;64828;49.956;8.636;2023-02-24T01:39:47;37.55;35.81;38.85;;
76100;Laerm;64828;49.956;8.636;2023-02-24T01:40:04;37.81;36.29;40.13;;
76100;Laerm;64828;49.956;8.636;2023-02-24T01:40:25;37.74;35.86;40.43;;
76100;Laerm;64828;49.956;8.636;2023-02-24T01:40:41;37.65;36.30;39.60;;